Sebastian Glik

Recruteur - Lechia
21 Oct 2027
Jeudi
Processus

Personnalité

Adaptabilité (14) Ambition (17) Controverse (2) Loyauté (5) Pression (2) Professionnalisme (1) Sportivité (8) Tempérament (15)

Profil

Style d'entraînement Démocratique
Diplôme National B
Détermination 5
Gestion des joueurs 12
Motivation 7
Discipline 7
Satisfaction professionnelle
100%
Fatigue
0%
Rôle Recruteur
Salaire 68.0K p/s
Contrat 14.03.2029

Performance

Comportement Bon
Efficacité de l'entraînement
42%
Développement des joueurs
60%
Prévention des blessures
45%
Mise en place tactique
55%

Événements récents

A participé à une réunion de recrutement 7j
A recommandé une cible de transfert 7j
A observé un match 7j
A participé à une réunion de recrutement 14j
A recommandé une cible de transfert 14j
A observé un match 14j
A participé à une réunion de recrutement 21j
A recommandé une cible de transfert 21j

Suivi en cours

126
Joueur Club Statut Capacité Confiance Observé Dernière observation Dernier vote
Jan Bienduga Legia Perdu 89 / 111 69% 1 02.08.2027 Approuver
Martim Cunha Porto Actif 113 / 118 40% 1 12.07.2027 -
Kazunari Kita Real Sociedad Actif 96 / 116 40% 1 12.07.2027 -
Leandro Martins Benfica Actif 107 / 93 40% 1 06.07.2027 -
Keagan Tau Ajax Cape Town Actif 93 / 105 40% 1 06.07.2027 -
Dylan Lawlor Cardiff City Actif 113 / 127 40% 2 28.06.2027 -
Felix Afful Liberty Professionals Actif 73 / 94 40% 1 28.06.2027 -
Joel McGregor Swindon Town Actif 102 / 94 40% 1 28.06.2027 -
Keagan Phiri Platinum Stars Perdu 105 / 115 40% 1 21.06.2027 -
Michał Gurgul Lech Actif 104 / 113 40% 1 21.06.2027 -
Adam Bakoune Ospitaletto Actif 99 / 102 40% 1 14.06.2027 -
Josh Smith Accrington Stanley Actif 80 / 87 40% 1 14.06.2027 -
Adama Goïta Remo Stars Perdu 89 / 98 40% 2 02.06.2027 -
Borna Knezović Casarano Actif 111 / 108 40% 1 02.06.2027 -
Dilan Godoy Vélez Actif 113 / 121 40% 1 02.06.2027 -
Lorent Tolaj Plymouth Argyle Actif 123 / 119 40% 6 29.05.2027 -
Evidence Makgopa Orlando Pirates Actif 128 / 120 40% 2 29.05.2027 -
Lorenzo Di Stefano Torres Actif 100 / 118 40% 3 29.05.2027 -
Christian Saydee Wigan Athletic Actif 111 / 111 40% 3 27.05.2027 -
Mostafa Marwan Masr El Makasa Actif 100 / 95 40% 2 27.05.2027 -
Cristian Shpendi Cesena Actif 141 / 137 40% 2 26.05.2027 -
Harry Leonard Peterborough United Actif 106 / 112 40% 2 26.05.2027 -
Cameron Archer Southampton Actif 132 / 131 40% 4 25.05.2027 -
Konan N'Dri Lecce Actif 128 / 119 40% 2 25.05.2027 -
Mihael Mlinarić Zaglebie Actif 116 / 109 40% 1 22.05.2027 -
Dom Ballard Leyton Orient Actif 118 / 126 40% 7 21.05.2027 -
Luis Vázquez Birmingham Actif 123 / 119 40% 3 21.05.2027 -
Malik Mothersille Stockport County Actif 109 / 113 40% 2 19.05.2027 -
Job Ochieng Real Sociedad Actif 97 / 120 40% 1 19.05.2027 -
Tom Cannon Sheffield United Actif 137 / 130 40% 5 18.05.2027 -
Will Lankshear Middlesbrough Actif 136 / 132 40% 4 18.05.2027 -
Tyrese Campbell Sheffield United Actif 120 / 116 40% 3 15.05.2027 -
Andri Guðjohnsen Blackburn Rovers Actif 134 / 135 40% 1 14.05.2027 -
Ilyas Ansah Hull City Actif 139 / 125 40% 7 13.05.2027 -
Marezi Portsmouth Actif 110 / 122 40% 2 13.05.2027 -
Richard Koné Queens Park Rangers Actif 125 / 128 40% 2 12.05.2027 -
Bradley Fink Wycombe Wanderers Actif 104 / 119 40% 3 12.05.2027 -
Emanuele Schimmenti Potenza Actif 102 / 114 40% 2 10.05.2027 -
Bojan Radulović Huddersfield Town Actif 125 / 125 40% 2 09.05.2027 -
Mandla Mahlangu Ajax Cape Town Actif 99 / 111 40% 1 08.05.2027 -
Aune Heggebø West Bromwich Albion Actif 131 / 139 40% 4 06.05.2027 -
Rajmund Molnár Pogon Actif 106 / 123 40% 2 03.05.2027 -
Rocco Vata Watford Actif 115 / 133 40% 1 03.05.2027 -
Iwan Morgan Grimsby Town Actif 123 / 114 40% 1 02.05.2027 -
Tyreece Campbell Charlton Athletic Actif 125 / 108 40% 4 01.05.2027 -
Camillo Tavernelli Arezzo Actif 126 / 124 40% 1 01.05.2027 -
Mathias Jørgensen Blackburn Rovers Actif 113 / 110 40% 2 29.04.2027 -
Jayden Wareham Barnet Actif 102 / 101 40% 2 27.04.2027 -
Santiago Pierotti Lecce Actif 131 / 138 40% 2 27.04.2027 -
Robert Mizo Ashanti Gold Actif 107 / 110 40% 2 25.04.2027 -
Pablo Rodríguez Lech Actif 133 / 121 40% 4 24.04.2027 -
Sam Bell Bristol City Actif 110 / 130 40% 4 24.04.2027 -
Victor Torp Coventry City Actif 130 / 122 40% 1 21.04.2027 -
Kelly Saravanan Salford City Actif 117 / 111 40% 2 20.04.2027 -
Abu Kamara Portsmouth Actif 116 / 119 40% 3 15.04.2027 -
Brayan León Mamelodi Sundowns Actif 132 / 114 40% 1 13.04.2027 -
Rhian Brewster Oxford United Actif 115 / 120 40% 1 13.04.2027 -
Joe Gelhardt Hull City Actif 125 / 142 40% 1 07.04.2027 -
Yousef Salech Cardiff City Actif 129 / 129 40% 3 06.04.2027 -
Willem Geubbels Lecce Actif 123 / 133 40% 1 06.04.2027 -
Etiosa Ighodaro Kaizer Chiefs Actif 120 / 99 40% 2 04.04.2027 -
Tomás González Piast Actif 108 / 110 40% 2 03.04.2027 -
Mohamed-Ali Cho Hull City Actif 140 / 129 40% 2 30.03.2027 -
Danyil Alefirenko Chornomorets Actif 116 / 98 40% 1 27.03.2027 -
Adam Idah Swansea City Actif 128 / 111 40% 1 18.03.2027 -
Jacques Siwe Rubin Actif 114 / 109 40% 1 17.03.2027 -
Rubens Dinamo Moscow Actif 130 / 139 40% 3 31.12.2026 -
Ethan Galbraith Swansea City Actif 127 / 126 40% 2 31.12.2026 -
Kyle John Port Vale Actif 109 / 120 40% 1 31.12.2026 -
Aidan Morris Middlesbrough Actif 117 / 140 40% 1 28.12.2026 -
Williams Manyama SuperSport United Actif 129 / 122 40% 2 27.12.2026 -
Mattéo Tramoni Pisa Actif 141 / 147 40% 1 27.12.2026 -
Filip Szymczak Zaglebie Actif 109 / 106 40% 2 26.12.2026 -
Thiago Salischiker Rucci HNK Vukovar 1991 Actif 86 / 90 40% 2 25.12.2026 -
Ante Brekalo Zadar Actif 107 / 114 40% 2 25.12.2026 -
Ruben van Bommel Ferencvaros Actif 127 / 131 40% 1 21.12.2026 -
Dylan Cabral Arsenal Actif 98 / 93 40% 1 20.12.2026 -
Ben Ahmed Kohili Paradou Actif 101 / 112 40% 1 20.12.2026 -
Mandla Erasmus SuperSport United Actif 116 / 131 40% 2 17.12.2026 -
Anders Klynge Jagiellonia Actif 124 / 125 40% 2 17.12.2026 -
Mohamed Ali Ben Romdhane Al Ahly Actif 119 / 137 40% 1 15.12.2026 -
Petar Stanić Ludogorets Actif 132 / 136 40% 2 14.12.2026 Plus d'infos
Simon Ramabu Polokwane City Actif 103 / 123 40% 1 13.12.2026 -
Suleiman Mojereola FC Diarra Actif 84 / 74 40% 1 13.12.2026 -
Reda Khadra Qarabag Actif 130 / 119 40% 2 10.12.2026 -
Suleiman Camara Slovan Bratislava Actif 126 / 116 40% 2 09.12.2026 -
Christian Krasnodar Actif 131 / 143 40% 3 09.12.2026 -
Marcel Pięczek Korona Perdu 115 / 104 40% 1 08.12.2026 -
Thalente Mbatha Orlando Pirates Actif 112 / 128 40% 1 08.12.2026 -
Everton Bala Levski Actif 124 / 116 40% 1 07.12.2026 -
David Miculescu FCSB Actif 126 / 129 40% 1 06.12.2026 -
Mduduzi Shabalala Kaizer Chiefs Actif 114 / 117 40% 2 02.12.2026 -
Marcelo Allende Mamelodi Sundowns Actif 131 / 143 40% 1 01.12.2026 -
Sebastián Medina Tigre Actif 124 / 111 40% 1 27.11.2026 -
Aarón Molinas Defensa y Justicia Actif 130 / 113 40% 1 27.11.2026 -
Norbert Wojtuszek Jagiellonia Actif 113 / 118 40% 1 22.11.2026 -
Sergio Lozano Jagiellonia Actif 132 / 124 40% 1 22.11.2026 -
Paul Mukairu Pogon Actif 111 / 102 40% 2 21.11.2026 -
Patrik Wålemark Lech Actif 118 / 115 40% 1 20.11.2026 -
Alan Lescano Argentinos Juniors Actif 126 / 128 40% 1 15.11.2026 -
Dijon Kameri Cracovia Actif 126 / 134 40% 1 15.11.2026 -
Siyanda Ndlovu Bloemfontein Celtic Actif 126 / 114 40% 1 11.11.2026 -
Sebastian Holm Mathisen Sandefjord Actif 99 / 102 40% 1 06.11.2026 -
Angelo Gattermayer Wolfsberger AC Actif 115 / 134 40% 1 03.11.2026 -
Fletcher Holman Swindon Town Actif 81 / 97 40% 1 23.10.2026 -
Sidiki Chérif Coventry City Actif 129 / 121 40% 1 23.10.2026 -
Matvii Ponomarenko Dynamo Kyiv Actif 105 / 119 40% 1 21.10.2026 -
Maren Kefas Plateau United Actif 91 / 97 40% 1 18.10.2026 -
Alasana Yirajang AS Trencin Actif 116 / 122 40% 1 18.10.2026 -
Andrey Domotsev Mashuk Actif 75 / 96 40% 1 17.10.2026 -
Alexei Dominguez Pachuca Actif 93 / 114 40% 2 16.10.2026 -
Kaio Eduardo Thun Actif 98 / 110 40% 1 16.10.2026 -
David Kalokoh Ajax Actif 117 / 109 40% 2 12.10.2026 -
Andy Rojas New York Red Bulls Actif 97 / 89 40% 1 12.10.2026 -
Csanád Vilmos Dénes Debrecen Actif 106 / 112 40% 1 12.10.2026 -
Maxim Kononov Feniks Actif 70 / 75 40% 1 09.10.2026 -
Ruben Ramos LA Galaxy Actif 98 / 95 40% 1 09.10.2026 -
Micah Burton Austin FC Actif 87 / 85 40% 1 08.10.2026 -
Bogdan Petrović TSC Actif 106 / 114 40% 1 08.10.2026 -
Nikita Kuzin Kaluga Actif 88 / 77 40% 1 06.10.2026 -
Archie Goodwin Charlotte Football Club Actif 93 / 105 40% 1 06.10.2026 -
Kristian Fletcher FC Cincinnati Actif 103 / 87 40% 1 05.10.2026 -
Marko Kolar Ruch Actif 101 / 106 69% 1 31.08.2026 Approuver
José Arnáiz Granada Actif 121 / 141 40% 1 02.08.2026 -
Luis Palma Lech Actif 122 / 121 40% 1 02.08.2026 -
Jason Knight Bristol City Actif 116 / 134 40% 1 02.08.2026 -